Albany (ALB/KALB)

Map

Destinations

Information

Location
Albany, NY
Local Time
22:23 / 10:23 pm
GMT Time
02:23 / 2:23 am
Gates
Unassigned
No FAA reported delays
METAR KALB 280151Z 00000KT 10SM FEW014 BKN023 OVC039 06/03 A3000 RMK AO2 SLP162 T00560028
TAF KALB 272345Z 2800/2824 18003KT P6SM SCT015 OVC025 FM280200 18003KT 3SM BR OVC015 FM280600 VRB03KT 1 1/2SM BR OVC005 FM281500 VRB03KT 2SM -SHRA BR OVC007
  • No charts available